Pageland, South Carolina
Current Conditions -  °F | °C
As of 4:53 AM on Monday 22 Dec 2014 (Local Time) from KEQY Reporting Station
Light Rain Light Rain  
Wind Chill: 35°   Ceiling: 700
Heat Index: 41°   Visibility: 4mi
Dew Point: 38°   Wind: 10mph
Humidity: 89%   Direction: 30°NNE
Pressure: 30.11"   Gusts: NA
Location:  34.77°N, 80.39°W
Report Text: KEQY 220953Z AUTO 03009KT 4SM -RA BR OVC007 05/03 A3011 RMK AO2 CIG 004V012 SLP210 P0006 T00500033
Loading
Personal Weather Stations






























Interactive Weather Map New forecast layout! Learn more

10-Day Weather Forecast

Advertisements
Track Severe Weather on mobile